sensor_id;sensor_type;location;lat;lon;timestamp;P1;durP1;ratioP1;P2;durP2;ratioP2
3953;SDS011;1991;48.682;9.030;2023-03-13T00:00:49;10.17;;;2.70;;
3953;SDS011;1991;48.682;9.030;2023-03-13T00:03:16;8.03;;;2.47;;
3953;SDS011;1991;48.682;9.030;2023-03-13T00:05:42;10.00;;;2.90;;
3953;SDS011;1991;48.682;9.030;2023-03-13T00:08:07;12.07;;;2.73;;
3953;SDS011;1991;48.682;9.030;2023-03-13T00:10:35;10.50;;;2.80;;
3953;SDS011;1991;48.682;9.030;2023-03-13T00:13:02;10.53;;;2.70;;
3953;SDS011;1991;48.682;9.030;2023-03-13T00:15:28;10.90;;;3.30;;
3953;SDS011;1991;48.682;9.030;2023-03-13T00:17:53;15.70;;;2.97;;
3953;SDS011;1991;48.682;9.030;2023-03-13T00:20:19;9.17;;;2.67;;
3953;SDS011;1991;48.682;9.030;2023-03-13T00:22:45;12.33;;;3.53;;
3953;SDS011;1991;48.682;9.030;2023-03-13T00:25:10;9.73;;;2.43;;
3953;SDS011;1991;48.682;9.030;2023-03-13T00:27:36;14.50;;;2.77;;
3953;SDS011;1991;48.682;9.030;2023-03-13T00:30:01;13.57;;;3.00;;
3953;SDS011;1991;48.682;9.030;2023-03-13T00:32:27;10.83;;;3.00;;
3953;SDS011;1991;48.682;9.030;2023-03-13T00:34:53;10.33;;;2.67;;
3953;SDS011;1991;48.682;9.030;2023-03-13T00:37:18;8.83;;;2.50;;
3953;SDS011;1991;48.682;9.030;2023-03-13T00:39:44;9.53;;;2.77;;
3953;SDS011;1991;48.682;9.030;2023-03-13T00:42:09;10.00;;;2.50;;
3953;SDS011;1991;48.682;9.030;2023-03-13T00:44:35;7.73;;;2.27;;
3953;SDS011;1991;48.682;9.030;2023-03-13T00:47:00;10.20;;;2.63;;
3953;SDS011;1991;48.682;9.030;2023-03-13T00:49:26;11.13;;;2.50;;
3953;SDS011;1991;48.682;9.030;2023-03-13T00:51:51;11.07;;;3.00;;
3953;SDS011;1991;48.682;9.030;2023-03-13T00:54:17;8.47;;;2.57;;
3953;SDS011;1991;48.682;9.030;2023-03-13T00:56:43;11.20;;;2.10;;
3953;SDS011;1991;48.682;9.030;2023-03-13T00:59:08;12.43;;;2.33;;
3953;SDS011;1991;48.682;9.030;2023-03-13T01:01:34;8.77;;;2.50;;
3953;SDS011;1991;48.682;9.030;2023-03-13T01:04:01;10.83;;;1.90;;
3953;SDS011;1991;48.682;9.030;2023-03-13T01:06:29;9.50;;;1.53;;
3953;SDS011;1991;48.682;9.030;2023-03-13T01:08:57;7.47;;;2.10;;
3953;SDS011;1991;48.682;9.030;2023-03-13T01:11:27;13.73;;;2.10;;
3953;SDS011;1991;48.682;9.030;2023-03-13T01:13:55;8.93;;;1.90;;
3953;SDS011;1991;48.682;9.030;2023-03-13T01:16:24;10.63;;;2.27;;
3953;SDS011;1991;48.682;9.030;2023-03-13T01:18:51;9.17;;;2.03;;
3953;SDS011;1991;48.682;9.030;2023-03-13T01:21:19;7.77;;;1.90;;
3953;SDS011;1991;48.682;9.030;2023-03-13T01:23:46;10.33;;;2.43;;
3953;SDS011;1991;48.682;9.030;2023-03-13T01:26:13;9.80;;;1.80;;
3953;SDS011;1991;48.682;9.030;2023-03-13T01:28:39;11.50;;;2.10;;
3953;SDS011;1991;48.682;9.030;2023-03-13T01:33:42;6.33;;;1.83;;
3953;SDS011;1991;48.682;9.030;2023-03-13T01:36:09;8.00;;;1.70;;
3953;SDS011;1991;48.682;9.030;2023-03-13T01:38:35;7.60;;;1.60;;
3953;SDS011;1991;48.682;9.030;2023-03-13T01:41:02;8.20;;;1.53;;
3953;SDS011;1991;48.682;9.030;2023-03-13T01:43:29;9.07;;;1.60;;
3953;SDS011;1991;48.682;9.030;2023-03-13T01:51:02;6.23;;;1.70;;
3953;SDS011;1991;48.682;9.030;2023-03-13T01:53:32;6.90;;;1.53;;
3953;SDS011;1991;48.682;9.030;2023-03-13T01:55:59;6.57;;;1.37;;
3953;SDS011;1991;48.682;9.030;2023-03-13T01:58:27;10.10;;;1.43;;
3953;SDS011;1991;48.682;9.030;2023-03-13T02:00:54;6.20;;;1.50;;
3953;SDS011;1991;48.682;9.030;2023-03-13T02:03:20;5.30;;;1.60;;
3953;SDS011;1991;48.682;9.030;2023-03-13T02:05:47;5.47;;;1.30;;
3953;SDS011;1991;48.682;9.030;2023-03-13T02:08:16;7.80;;;1.20;;
3953;SDS011;1991;48.682;9.030;2023-03-13T02:10:50;8.23;;;1.43;;
3953;SDS011;1991;48.682;9.030;2023-03-13T02:13:22;7.47;;;1.20;;
3953;SDS011;1991;48.682;9.030;2023-03-13T02:15:49;6.27;;;1.40;;
3953;SDS011;1991;48.682;9.030;2023-03-13T02:18:15;4.33;;;1.50;;
3953;SDS011;1991;48.682;9.030;2023-03-13T02:20:41;7.43;;;1.60;;
3953;SDS011;1991;48.682;9.030;2023-03-13T02:26:17;5.43;;;1.23;;
3953;SDS011;1991;48.682;9.030;2023-03-13T02:28:43;6.00;;;1.10;;
3953;SDS011;1991;48.682;9.030;2023-03-13T02:31:09;4.63;;;0.90;;
3953;SDS011;1991;48.682;9.030;2023-03-13T02:33:36;7.43;;;1.33;;
3953;SDS011;1991;48.682;9.030;2023-03-13T02:36:04;7.00;;;1.50;;
3953;SDS011;1991;48.682;9.030;2023-03-13T02:38:32;5.57;;;1.17;;
3953;SDS011;1991;48.682;9.030;2023-03-13T02:41:01;6.57;;;1.30;;
3953;SDS011;1991;48.682;9.030;2023-03-13T02:43:30;3.50;;;0.90;;
3953;SDS011;1991;48.682;9.030;2023-03-13T02:46:18;5.10;;;1.07;;
3953;SDS011;1991;48.682;9.030;2023-03-13T02:48:46;6.07;;;1.10;;
3953;SDS011;1991;48.682;9.030;2023-03-13T02:51:16;4.70;;;1.50;;
3953;SDS011;1991;48.682;9.030;2023-03-13T02:54:03;6.53;;;1.20;;
3953;SDS011;1991;48.682;9.030;2023-03-13T02:56:32;3.90;;;1.10;;
3953;SDS011;1991;48.682;9.030;2023-03-13T02:59:00;4.63;;;1.00;;
3953;SDS011;1991;48.682;9.030;2023-03-13T03:01:25;7.07;;;1.43;;
3953;SDS011;1991;48.682;9.030;2023-03-13T03:03:51;3.87;;;1.47;;
3953;SDS011;1991;48.682;9.030;2023-03-13T03:06:17;4.93;;;1.20;;
3953;SDS011;1991;48.682;9.030;2023-03-13T03:08:42;4.20;;;0.97;;
3953;SDS011;1991;48.682;9.030;2023-03-13T03:11:08;4.73;;;0.87;;
3953;SDS011;1991;48.682;9.030;2023-03-13T03:13:34;3.67;;;0.90;;
3953;SDS011;1991;48.682;9.030;2023-03-13T03:16:04;3.33;;;0.90;;
3953;SDS011;1991;48.682;9.030;2023-03-13T03:18:34;2.43;;;0.77;;
3953;SDS011;1991;48.682;9.030;2023-03-13T03:21:00;5.33;;;1.10;;
3953;SDS011;1991;48.682;9.030;2023-03-13T03:23:26;5.30;;;1.10;;
3953;SDS011;1991;48.682;9.030;2023-03-13T03:25:51;1.90;;;0.87;;
3953;SDS011;1991;48.682;9.030;2023-03-13T03:28:17;4.60;;;0.80;;
3953;SDS011;1991;48.682;9.030;2023-03-13T03:30:42;4.30;;;1.10;;
3953;SDS011;1991;48.682;9.030;2023-03-13T03:33:08;4.13;;;0.90;;
3953;SDS011;1991;48.682;9.030;2023-03-13T03:35:33;2.80;;;0.70;;
3953;SDS011;1991;48.682;9.030;2023-03-13T03:38:02;2.60;;;1.00;;
3953;SDS011;1991;48.682;9.030;2023-03-13T03:40:28;3.63;;;1.03;;
3953;SDS011;1991;48.682;9.030;2023-03-13T03:42:54;2.77;;;0.70;;
3953;SDS011;1991;48.682;9.030;2023-03-13T03:45:19;2.93;;;0.67;;
3953;SDS011;1991;48.682;9.030;2023-03-13T03:47:45;3.17;;;0.50;;
3953;SDS011;1991;48.682;9.030;2023-03-13T03:50:10;5.20;;;0.80;;
3953;SDS011;1991;48.682;9.030;2023-03-13T03:52:36;3.00;;;0.70;;
3953;SDS011;1991;48.682;9.030;2023-03-13T03:55:03;3.80;;;1.17;;
3953;SDS011;1991;48.682;9.030;2023-03-13T03:57:29;1.53;;;0.50;;
3953;SDS011;1991;48.682;9.030;2023-03-13T03:59:54;2.37;;;0.50;;
3953;SDS011;1991;48.682;9.030;2023-03-13T04:02:20;1.83;;;0.50;;
3953;SDS011;1991;48.682;9.030;2023-03-13T04:04:45;2.33;;;0.57;;
3953;SDS011;1991;48.682;9.030;2023-03-13T04:07:11;1.03;;;0.43;;
3953;SDS011;1991;48.682;9.030;2023-03-13T04:09:36;1.30;;;0.57;;
3953;SDS011;1991;48.682;9.030;2023-03-13T04:12:02;1.83;;;0.67;;
3953;SDS011;1991;48.682;9.030;2023-03-13T04:14:28;2.47;;;0.60;;
3953;SDS011;1991;48.682;9.030;2023-03-13T04:16:53;2.00;;;0.40;;
3953;SDS011;1991;48.682;9.030;2023-03-13T04:19:19;3.47;;;0.90;;
3953;SDS011;1991;48.682;9.030;2023-03-13T04:21:44;1.97;;;0.47;;
3953;SDS011;1991;48.682;9.030;2023-03-13T04:24:10;1.30;;;0.60;;
3953;SDS011;1991;48.682;9.030;2023-03-13T04:26:35;2.20;;;0.60;;
3953;SDS011;1991;48.682;9.030;2023-03-13T04:29:01;3.43;;;0.40;;
3953;SDS011;1991;48.682;9.030;2023-03-13T04:31:27;1.50;;;0.47;;
3953;SDS011;1991;48.682;9.030;2023-03-13T04:33:52;1.63;;;0.40;;
3953;SDS011;1991;48.682;9.030;2023-03-13T04:36:18;1.40;;;0.60;;
3953;SDS011;1991;48.682;9.030;2023-03-13T04:38:43;2.40;;;0.60;;
3953;SDS011;1991;48.682;9.030;2023-03-13T04:41:09;1.30;;;0.50;;
3953;SDS011;1991;48.682;9.030;2023-03-13T04:43:34;1.90;;;0.50;;
3953;SDS011;1991;48.682;9.030;2023-03-13T04:46:00;0.70;;;0.40;;
3953;SDS011;1991;48.682;9.030;2023-03-13T04:48:26;0.97;;;0.50;;
3953;SDS011;1991;48.682;9.030;2023-03-13T04:50:51;2.23;;;0.53;;
3953;SDS011;1991;48.682;9.030;2023-03-13T04:53:17;0.70;;;0.40;;
3953;SDS011;1991;48.682;9.030;2023-03-13T04:55:43;0.80;;;0.50;;
3953;SDS011;1991;48.682;9.030;2023-03-13T04:58:08;0.40;;;0.30;;
3953;SDS011;1991;48.682;9.030;2023-03-13T05:00:34;2.30;;;0.43;;
3953;SDS011;1991;48.682;9.030;2023-03-13T05:03:00;1.63;;;0.50;;
3953;SDS011;1991;48.682;9.030;2023-03-13T05:05:25;1.80;;;0.50;;
3953;SDS011;1991;48.682;9.030;2023-03-13T05:07:51;1.27;;;0.60;;
3953;SDS011;1991;48.682;9.030;2023-03-13T05:10:16;1.33;;;0.60;;
3953;SDS011;1991;48.682;9.030;2023-03-13T05:12:42;2.37;;;0.40;;
3953;SDS011;1991;48.682;9.030;2023-03-13T05:15:07;2.23;;;0.63;;
3953;SDS011;1991;48.682;9.030;2023-03-13T05:17:33;1.03;;;0.50;;
3953;SDS011;1991;48.682;9.030;2023-03-13T05:19:59;2.10;;;0.40;;
3953;SDS011;1991;48.682;9.030;2023-03-13T05:22:24;1.57;;;0.50;;
3953;SDS011;1991;48.682;9.030;2023-03-13T05:24:50;0.90;;;0.30;;
3953;SDS011;1991;48.682;9.030;2023-03-13T05:27:15;2.03;;;0.50;;
3953;SDS011;1991;48.682;9.030;2023-03-13T05:29:41;0.87;;;0.33;;
3953;SDS011;1991;48.682;9.030;2023-03-13T05:32:06;0.33;;;0.30;;
3953;SDS011;1991;48.682;9.030;2023-03-13T05:34:32;0.20;;;0.20;;
3953;SDS011;1991;48.682;9.030;2023-03-13T05:36:58;0.43;;;0.30;;
3953;SDS011;1991;48.682;9.030;2023-03-13T05:39:23;0.97;;;0.30;;
3953;SDS011;1991;48.682;9.030;2023-03-13T05:41:49;2.57;;;0.33;;
3953;SDS011;1991;48.682;9.030;2023-03-13T05:44:14;0.90;;;0.53;;
3953;SDS011;1991;48.682;9.030;2023-03-13T05:46:40;1.30;;;0.30;;
3953;SDS011;1991;48.682;9.030;2023-03-13T05:49:05;1.50;;;0.30;;
3953;SDS011;1991;48.682;9.030;2023-03-13T05:51:32;1.10;;;0.30;;
3953;SDS011;1991;48.682;9.030;2023-03-13T05:53:57;0.37;;;0.20;;
3953;SDS011;1991;48.682;9.030;2023-03-13T05:56:23;0.80;;;0.30;;
3953;SDS011;1991;48.682;9.030;2023-03-13T05:58:48;0.93;;;0.30;;
3953;SDS011;1991;48.682;9.030;2023-03-13T06:01:14;0.83;;;0.37;;
3953;SDS011;1991;48.682;9.030;2023-03-13T06:03:39;0.47;;;0.13;;
3953;SDS011;1991;48.682;9.030;2023-03-13T06:06:05;1.23;;;0.20;;
3953;SDS011;1991;48.682;9.030;2023-03-13T06:08:31;0.60;;;0.20;;
3953;SDS011;1991;48.682;9.030;2023-03-13T06:11:00;2.53;;;0.10;;
3953;SDS011;1991;48.682;9.030;2023-03-13T06:13:26;0.30;;;0.20;;
3953;SDS011;1991;48.682;9.030;2023-03-13T06:15:52;0.67;;;0.20;;
3953;SDS011;1991;48.682;9.030;2023-03-13T06:18:19;1.00;;;0.40;;
3953;SDS011;1991;48.682;9.030;2023-03-13T06:20:46;1.17;;;0.40;;
3953;SDS011;1991;48.682;9.030;2023-03-13T06:23:13;2.17;;;0.43;;
3953;SDS011;1991;48.682;9.030;2023-03-13T06:25:38;1.23;;;0.40;;
3953;SDS011;1991;48.682;9.030;2023-03-13T06:28:04;1.47;;;0.50;;
3953;SDS011;1991;48.682;9.030;2023-03-13T06:30:29;0.30;;;0.30;;
3953;SDS011;1991;48.682;9.030;2023-03-13T06:32:55;1.13;;;0.40;;
3953;SDS011;1991;48.682;9.030;2023-03-13T06:35:22;0.43;;;0.20;;
3953;SDS011;1991;48.682;9.030;2023-03-13T06:37:48;3.63;;;0.50;;
3953;SDS011;1991;48.682;9.030;2023-03-13T06:40:13;1.17;;;0.40;;
3953;SDS011;1991;48.682;9.030;2023-03-13T06:42:39;0.30;;;0.20;;
3953;SDS011;1991;48.682;9.030;2023-03-13T06:45:04;1.00;;;0.13;;
3953;SDS011;1991;48.682;9.030;2023-03-13T06:47:30;0.97;;;0.30;;
3953;SDS011;1991;48.682;9.030;2023-03-13T06:49:56;1.50;;;0.30;;
3953;SDS011;1991;48.682;9.030;2023-03-13T06:52:22;3.37;;;0.30;;
3953;SDS011;1991;48.682;9.030;2023-03-13T06:54:48;0.27;;;0.20;;
3953;SDS011;1991;48.682;9.030;2023-03-13T06:57:14;0.30;;;0.30;;
3953;SDS011;1991;48.682;9.030;2023-03-13T06:59:39;1.37;;;0.30;;
3953;SDS011;1991;48.682;9.030;2023-03-13T07:02:05;0.47;;;0.30;;
3953;SDS011;1991;48.682;9.030;2023-03-13T07:04:30;1.40;;;0.30;;
3953;SDS011;1991;48.682;9.030;2023-03-13T07:06:56;0.83;;;0.40;;
3953;SDS011;1991;48.682;9.030;2023-03-13T07:09:21;0.50;;;0.30;;
3953;SDS011;1991;48.682;9.030;2023-03-13T07:11:47;0.70;;;0.40;;
3953;SDS011;1991;48.682;9.030;2023-03-13T07:14:13;1.60;;;0.30;;
3953;SDS011;1991;48.682;9.030;2023-03-13T07:16:38;0.37;;;0.33;;
3953;SDS011;1991;48.682;9.030;2023-03-13T07:19:04;0.80;;;0.40;;
3953;SDS011;1991;48.682;9.030;2023-03-13T07:21:30;0.40;;;0.30;;
3953;SDS011;1991;48.682;9.030;2023-03-13T07:23:55;1.50;;;0.50;;
3953;SDS011;1991;48.682;9.030;2023-03-13T07:26:21;1.37;;;0.43;;
3953;SDS011;1991;48.682;9.030;2023-03-13T07:28:46;0.70;;;0.40;;
3953;SDS011;1991;48.682;9.030;2023-03-13T07:31:13;0.27;;;0.20;;
3953;SDS011;1991;48.682;9.030;2023-03-13T07:33:40;0.90;;;0.40;;
3953;SDS011;1991;48.682;9.030;2023-03-13T07:36:06;0.53;;;0.20;;
3953;SDS011;1991;48.682;9.030;2023-03-13T07:38:33;0.30;;;0.20;;
3953;SDS011;1991;48.682;9.030;2023-03-13T07:40:59;0.85;;;0.30;;
3953;SDS011;1991;48.682;9.030;2023-03-13T07:43:25;3.33;;;0.50;;
3953;SDS011;1991;48.682;9.030;2023-03-13T07:48:17;0.50;;;0.30;;
3953;SDS011;1991;48.682;9.030;2023-03-13T07:50:43;1.13;;;0.40;;
3953;SDS011;1991;48.682;9.030;2023-03-13T07:53:09;3.47;;;0.70;;
3953;SDS011;1991;48.682;9.030;2023-03-13T07:55:35;1.73;;;0.50;;
3953;SDS011;1991;48.682;9.030;2023-03-13T07:58:00;1.73;;;0.40;;
3953;SDS011;1991;48.682;9.030;2023-03-13T08:00:26;1.45;;;0.50;;
3953;SDS011;1991;48.682;9.030;2023-03-13T08:02:51;1.02;;;0.30;;
3953;SDS011;1991;48.682;9.030;2023-03-13T08:05:17;2.25;;;0.32;;
3953;SDS011;1991;48.682;9.030;2023-03-13T08:07:43;0.38;;;0.38;;
3953;SDS011;1991;48.682;9.030;2023-03-13T08:10:09;2.45;;;0.57;;
3953;SDS011;1991;48.682;9.030;2023-03-13T08:12:35;0.73;;;0.47;;
3953;SDS011;1991;48.682;9.030;2023-03-13T08:15:00;0.60;;;0.40;;
3953;SDS011;1991;48.682;9.030;2023-03-13T08:17:28;0.70;;;0.43;;
3953;SDS011;1991;48.682;9.030;2023-03-13T08:19:54;0.38;;;0.30;;
3953;SDS011;1991;48.682;9.030;2023-03-13T08:22:20;2.70;;;0.43;;
3953;SDS011;1991;48.682;9.030;2023-03-13T08:24:46;1.95;;;0.40;;
3953;SDS011;1991;48.682;9.030;2023-03-13T08:27:12;2.00;;;0.30;;
3953;SDS011;1991;48.682;9.030;2023-03-13T08:29:37;1.08;;;0.70;;
3953;SDS011;1991;48.682;9.030;2023-03-13T08:32:03;1.58;;;0.70;;
3953;SDS011;1991;48.682;9.030;2023-03-13T08:34:29;0.98;;;0.45;;
3953;SDS011;1991;48.682;9.030;2023-03-13T08:36:55;2.30;;;0.50;;
3953;SDS011;1991;48.682;9.030;2023-03-13T08:39:22;2.50;;;0.30;;
3953;SDS011;1991;48.682;9.030;2023-03-13T08:41:47;2.33;;;0.70;;
3953;SDS011;1991;48.682;9.030;2023-03-13T08:44:14;0.60;;;0.40;;
3953;SDS011;1991;48.682;9.030;2023-03-13T08:46:41;4.03;;;0.70;;
3953;SDS011;1991;48.682;9.030;2023-03-13T08:49:08;3.15;;;0.70;;
3953;SDS011;1991;48.682;9.030;2023-03-13T08:51:33;1.65;;;0.52;;
3953;SDS011;1991;48.682;9.030;2023-03-13T08:54:00;5.18;;;0.73;;
3953;SDS011;1991;48.682;9.030;2023-03-13T08:56:26;1.30;;;0.57;;
3953;SDS011;1991;48.682;9.030;2023-03-13T08:58:55;3.20;;;0.70;;
3953;SDS011;1991;48.682;9.030;2023-03-13T09:01:25;1.75;;;0.55;;
3953;SDS011;1991;48.682;9.030;2023-03-13T09:03:56;1.08;;;0.50;;
3953;SDS011;1991;48.682;9.030;2023-03-13T09:06:21;3.83;;;0.57;;
3953;SDS011;1991;48.682;9.030;2023-03-13T09:08:47;1.60;;;0.60;;
3953;SDS011;1991;48.682;9.030;2023-03-13T09:11:14;3.05;;;0.88;;
3953;SDS011;1991;48.682;9.030;2023-03-13T09:13:45;0.52;;;0.43;;
3953;SDS011;1991;48.682;9.030;2023-03-13T09:16:16;5.57;;;0.73;;
3953;SDS011;1991;48.682;9.030;2023-03-13T09:18:47;1.10;;;0.60;;
3953;SDS011;1991;48.682;9.030;2023-03-13T09:21:17;5.03;;;0.80;;
3953;SDS011;1991;48.682;9.030;2023-03-13T09:23:45;0.95;;;0.63;;
3953;SDS011;1991;48.682;9.030;2023-03-13T09:26:11;1.83;;;0.60;;
3953;SDS011;1991;48.682;9.030;2023-03-13T09:28:38;0.63;;;0.50;;
3953;SDS011;1991;48.682;9.030;2023-03-13T09:31:25;3.47;;;0.70;;
3953;SDS011;1991;48.682;9.030;2023-03-13T09:33:53;2.35;;;0.60;;
3953;SDS011;1991;48.682;9.030;2023-03-13T09:36:19;3.60;;;0.68;;
3953;SDS011;1991;48.682;9.030;2023-03-13T09:38:45;2.47;;;0.68;;
3953;SDS011;1991;48.682;9.030;2023-03-13T09:43:40;1.15;;;0.50;;
3953;SDS011;1991;48.682;9.030;2023-03-13T09:46:16;1.17;;;0.73;;
3953;SDS011;1991;48.682;9.030;2023-03-13T09:48:50;1.52;;;0.60;;
3953;SDS011;1991;48.682;9.030;2023-03-13T09:51:30;2.17;;;0.70;;
3953;SDS011;1991;48.682;9.030;2023-03-13T09:57:06;5.97;;;0.90;;
3953;SDS011;1991;48.682;9.030;2023-03-13T10:02:24;2.63;;;0.82;;
3953;SDS011;1991;48.682;9.030;2023-03-13T10:07:44;1.13;;;0.57;;
3953;SDS011;1991;48.682;9.030;2023-03-13T10:10:11;1.55;;;0.70;;
3953;SDS011;1991;48.682;9.030;2023-03-13T10:12:45;2.17;;;0.90;;
3953;SDS011;1991;48.682;9.030;2023-03-13T10:17:53;3.65;;;0.60;;
3953;SDS011;1991;48.682;9.030;2023-03-13T10:22:53;1.70;;;0.80;;
3953;SDS011;1991;48.682;9.030;2023-03-13T10:25:31;1.70;;;0.68;;
3953;SDS011;1991;48.682;9.030;2023-03-13T10:27:58;3.25;;;0.60;;
3953;SDS011;1991;48.682;9.030;2023-03-13T10:30:26;2.85;;;0.90;;
3953;SDS011;1991;48.682;9.030;2023-03-13T10:33:13;1.05;;;0.80;;
3953;SDS011;1991;48.682;9.030;2023-03-13T10:35:59;2.38;;;0.60;;
3953;SDS011;1991;48.682;9.030;2023-03-13T10:38:27;1.02;;;0.80;;
3953;SDS011;1991;48.682;9.030;2023-03-13T10:40:56;5.40;;;0.90;;
3953;SDS011;1991;48.682;9.030;2023-03-13T10:43:30;2.22;;;0.55;;
3953;SDS011;1991;48.682;9.030;2023-03-13T10:45:56;1.40;;;0.85;;
3953;SDS011;1991;48.682;9.030;2023-03-13T10:48:24;2.70;;;1.15;;
3953;SDS011;1991;48.682;9.030;2023-03-13T10:50:53;2.92;;;1.13;;
3953;SDS011;1991;48.682;9.030;2023-03-13T10:53:24;2.90;;;0.60;;
3953;SDS011;1991;48.682;9.030;2023-03-13T10:55:54;2.55;;;0.88;;
3953;SDS011;1991;48.682;9.030;2023-03-13T10:58:26;2.45;;;0.80;;
3953;SDS011;1991;48.682;9.030;2023-03-13T11:01:15;3.45;;;0.73;;
3953;SDS011;1991;48.682;9.030;2023-03-13T11:03:43;0.88;;;0.60;;
3953;SDS011;1991;48.682;9.030;2023-03-13T11:06:23;3.22;;;0.90;;
3953;SDS011;1991;48.682;9.030;2023-03-13T11:09:09;3.80;;;1.27;;
3953;SDS011;1991;48.682;9.030;2023-03-13T11:14:15;2.72;;;0.80;;
3953;SDS011;1991;48.682;9.030;2023-03-13T11:16:46;1.77;;;0.80;;
3953;SDS011;1991;48.682;9.030;2023-03-13T11:19:28;1.38;;;0.65;;
3953;SDS011;1991;48.682;9.030;2023-03-13T11:30:23;1.50;;;0.68;;
3953;SDS011;1991;48.682;9.030;2023-03-13T11:33:14;1.98;;;0.80;;
3953;SDS011;1991;48.682;9.030;2023-03-13T11:38:17;1.27;;;0.70;;
3953;SDS011;1991;48.682;9.030;2023-03-13T11:40:55;2.55;;;0.88;;
3953;SDS011;1991;48.682;9.030;2023-03-13T11:46:21;1.92;;;0.82;;
3953;SDS011;1991;48.682;9.030;2023-03-13T11:57:20;3.03;;;0.80;;
3953;SDS011;1991;48.682;9.030;2023-03-13T12:02:26;1.40;;;0.57;;
3953;SDS011;1991;48.682;9.030;2023-03-13T12:05:00;3.53;;;0.63;;
3953;SDS011;1991;48.682;9.030;2023-03-13T12:07:33;2.75;;;0.88;;
3953;SDS011;1991;48.682;9.030;2023-03-13T12:10:17;6.20;;;0.75;;
3953;SDS011;1991;48.682;9.030;2023-03-13T12:15:46;2.85;;;0.70;;
3953;SDS011;1991;48.682;9.030;2023-03-13T12:18:32;1.55;;;0.70;;
3953;SDS011;1991;48.682;9.030;2023-03-13T12:21:03;2.20;;;0.70;;
3953;SDS011;1991;48.682;9.030;2023-03-13T12:26:09;1.48;;;0.75;;
3953;SDS011;1991;48.682;9.030;2023-03-13T12:28:43;3.47;;;0.98;;
3953;SDS011;1991;48.682;9.030;2023-03-13T12:31:30;2.35;;;0.80;;
3953;SDS011;1991;48.682;9.030;2023-03-13T12:34:08;3.33;;;1.20;;
3953;SDS011;1991;48.682;9.030;2023-03-13T12:39:48;3.80;;;0.98;;
3953;SDS011;1991;48.682;9.030;2023-03-13T12:45:21;4.95;;;0.70;;
3953;SDS011;1991;48.682;9.030;2023-03-13T12:48:02;3.08;;;0.80;;
3953;SDS011;1991;48.682;9.030;2023-03-13T12:51:03;4.75;;;0.80;;
3953;SDS011;1991;48.682;9.030;2023-03-13T12:56:28;4.68;;;0.57;;
3953;SDS011;1991;48.682;9.030;2023-03-13T12:59:15;2.88;;;0.70;;
3953;SDS011;1991;48.682;9.030;2023-03-13T13:01:46;6.90;;;0.88;;
3953;SDS011;1991;48.682;9.030;2023-03-13T13:04:27;1.52;;;0.40;;
3953;SDS011;1991;48.682;9.030;2023-03-13T13:07:00;2.97;;;0.73;;
3953;SDS011;1991;48.682;9.030;2023-03-13T13:09:36;2.83;;;0.75;;
3953;SDS011;1991;48.682;9.030;2023-03-13T13:12:24;8.23;;;0.63;;
3953;SDS011;1991;48.682;9.030;2023-03-13T13:14:54;1.70;;;0.45;;
3953;SDS011;1991;48.682;9.030;2023-03-13T13:19:53;0.95;;;0.50;;
3953;SDS011;1991;48.682;9.030;2023-03-13T13:25:01;1.25;;;0.60;;
3953;SDS011;1991;48.682;9.030;2023-03-13T13:27:51;3.00;;;0.40;;
3953;SDS011;1991;48.682;9.030;2023-03-13T13:32:44;1.65;;;0.95;;
3953;SDS011;1991;48.682;9.030;2023-03-13T13:35:32;11.15;;;1.00;;
3953;SDS011;1991;48.682;9.030;2023-03-13T13:43:47;1.92;;;0.50;;
3953;SDS011;1991;48.682;9.030;2023-03-13T13:46:28;1.58;;;0.50;;
3953;SDS011;1991;48.682;9.030;2023-03-13T13:51:28;3.08;;;0.65;;
3953;SDS011;1991;48.682;9.030;2023-03-13T14:01:49;3.50;;;0.60;;
3953;SDS011;1991;48.682;9.030;2023-03-13T14:07:23;1.75;;;0.47;;
3953;SDS011;1991;48.682;9.030;2023-03-13T14:12:56;1.17;;;0.50;;
3953;SDS011;1991;48.682;9.030;2023-03-13T14:15:30;1.67;;;1.30;;
3953;SDS011;1991;48.682;9.030;2023-03-13T14:20:54;5.38;;;0.63;;
3953;SDS011;1991;48.682;9.030;2023-03-13T14:30:07;4.72;;;0.77;;
3953;SDS011;1991;48.682;9.030;2023-03-13T14:32:33;2.20;;;1.10;;
3953;SDS011;1991;48.682;9.030;2023-03-13T14:34:59;3.33;;;0.70;;
3953;SDS011;1991;48.682;9.030;2023-03-13T14:40:07;1.70;;;0.70;;
3953;SDS011;1991;48.682;9.030;2023-03-13T14:42:57;1.05;;;0.75;;
3953;SDS011;1991;48.682;9.030;2023-03-13T14:45:31;2.88;;;0.70;;
3953;SDS011;1991;48.682;9.030;2023-03-13T14:48:02;1.00;;;0.70;;
3953;SDS011;1991;48.682;9.030;2023-03-13T14:50:34;0.80;;;0.60;;
3953;SDS011;1991;48.682;9.030;2023-03-13T14:53:02;1.55;;;0.50;;
3953;SDS011;1991;48.682;9.030;2023-03-13T14:55:34;3.50;;;0.82;;
3953;SDS011;1991;48.682;9.030;2023-03-13T14:58:05;2.47;;;0.80;;
3953;SDS011;1991;48.682;9.030;2023-03-13T15:00:50;2.95;;;0.75;;
3953;SDS011;1991;48.682;9.030;2023-03-13T15:08:40;2.17;;;0.70;;
3953;SDS011;1991;48.682;9.030;2023-03-13T15:13:42;1.90;;;0.80;;
3953;SDS011;1991;48.682;9.030;2023-03-13T15:16:12;3.90;;;0.70;;
3953;SDS011;1991;48.682;9.030;2023-03-13T15:18:40;2.15;;;1.00;;
3953;SDS011;1991;48.682;9.030;2023-03-13T15:23:37;2.60;;;0.80;;
3953;SDS011;1991;48.682;9.030;2023-03-13T15:26:04;1.58;;;0.70;;
3953;SDS011;1991;48.682;9.030;2023-03-13T15:28:30;3.03;;;0.68;;
3953;SDS011;1991;48.682;9.030;2023-03-13T15:30:56;1.75;;;0.90;;
3953;SDS011;1991;48.682;9.030;2023-03-13T15:33:23;3.65;;;0.82;;
3953;SDS011;1991;48.682;9.030;2023-03-13T15:35:52;1.95;;;1.02;;
3953;SDS011;1991;48.682;9.030;2023-03-13T15:38:18;1.83;;;0.65;;
3953;SDS011;1991;48.682;9.030;2023-03-13T15:40:48;3.28;;;1.20;;
3953;SDS011;1991;48.682;9.030;2023-03-13T15:43:15;1.67;;;0.82;;
3953;SDS011;1991;48.682;9.030;2023-03-13T15:45:41;2.13;;;0.77;;
3953;SDS011;1991;48.682;9.030;2023-03-13T15:48:15;1.80;;;0.68;;
3953;SDS011;1991;48.682;9.030;2023-03-13T15:50:41;2.78;;;1.00;;
3953;SDS011;1991;48.682;9.030;2023-03-13T15:53:11;3.30;;;0.73;;
3953;SDS011;1991;48.682;9.030;2023-03-13T15:55:48;2.28;;;0.98;;
3953;SDS011;1991;48.682;9.030;2023-03-13T15:58:15;1.40;;;0.70;;
3953;SDS011;1991;48.682;9.030;2023-03-13T16:00:41;2.22;;;0.70;;
3953;SDS011;1991;48.682;9.030;2023-03-13T16:03:12;2.35;;;0.65;;
3953;SDS011;1991;48.682;9.030;2023-03-13T16:05:41;2.47;;;0.70;;
3953;SDS011;1991;48.682;9.030;2023-03-13T16:08:08;2.90;;;0.88;;
3953;SDS011;1991;48.682;9.030;2023-03-13T16:10:38;2.28;;;0.68;;
3953;SDS011;1991;48.682;9.030;2023-03-13T16:13:03;2.25;;;0.70;;
3953;SDS011;1991;48.682;9.030;2023-03-13T16:15:29;3.13;;;0.80;;
3953;SDS011;1991;48.682;9.030;2023-03-13T16:17:55;1.42;;;0.60;;
3953;SDS011;1991;48.682;9.030;2023-03-13T16:20:21;2.85;;;0.65;;
3953;SDS011;1991;48.682;9.030;2023-03-13T16:22:47;3.20;;;0.70;;
3953;SDS011;1991;48.682;9.030;2023-03-13T16:25:14;2.65;;;0.75;;
3953;SDS011;1991;48.682;9.030;2023-03-13T16:27:40;2.80;;;1.05;;
3953;SDS011;1991;48.682;9.030;2023-03-13T16:30:11;3.60;;;0.63;;
3953;SDS011;1991;48.682;9.030;2023-03-13T16:32:53;1.20;;;0.77;;
3953;SDS011;1991;48.682;9.030;2023-03-13T16:35:19;4.93;;;1.20;;
3953;SDS011;1991;48.682;9.030;2023-03-13T16:37:45;3.25;;;0.93;;
3953;SDS011;1991;48.682;9.030;2023-03-13T16:40:14;3.03;;;1.27;;
3953;SDS011;1991;48.682;9.030;2023-03-13T16:42:41;3.75;;;1.92;;
3953;SDS011;1991;48.682;9.030;2023-03-13T16:45:07;5.70;;;1.42;;
3953;SDS011;1991;48.682;9.030;2023-03-13T16:47:33;3.55;;;1.60;;
3953;SDS011;1991;48.682;9.030;2023-03-13T16:50:00;3.75;;;1.83;;
3953;SDS011;1991;48.682;9.030;2023-03-13T16:52:26;3.03;;;1.42;;
3953;SDS011;1991;48.682;9.030;2023-03-13T16:54:51;4.75;;;1.30;;
3953;SDS011;1991;48.682;9.030;2023-03-13T16:57:18;3.92;;;1.73;;
3953;SDS011;1991;48.682;9.030;2023-03-13T16:59:47;2.40;;;1.20;;
3953;SDS011;1991;48.682;9.030;2023-03-13T17:02:14;3.78;;;1.15;;
3953;SDS011;1991;48.682;9.030;2023-03-13T17:04:41;3.65;;;1.15;;
3953;SDS011;1991;48.682;9.030;2023-03-13T17:07:26;1.50;;;0.52;;
3953;SDS011;1991;48.682;9.030;2023-03-13T17:09:53;1.80;;;0.90;;
3953;SDS011;1991;48.682;9.030;2023-03-13T17:12:19;8.90;;;1.30;;
3953;SDS011;1991;48.682;9.030;2023-03-13T17:14:44;4.20;;;0.90;;
3953;SDS011;1991;48.682;9.030;2023-03-13T17:17:11;1.70;;;0.95;;
3953;SDS011;1991;48.682;9.030;2023-03-13T17:19:40;2.72;;;1.00;;
3953;SDS011;1991;48.682;9.030;2023-03-13T17:22:07;2.65;;;0.93;;
3953;SDS011;1991;48.682;9.030;2023-03-13T17:24:36;2.50;;;1.00;;
3953;SDS011;1991;48.682;9.030;2023-03-13T17:27:01;2.75;;;1.00;;